Weather History for KHAI - March, 2013

Change the Weather History Date:

Monday, March 18, 2013

  Actual Average Record
Temperature  
Mean Temperature 30 °F -  
Max Temperature 33 °F 46 °F 71 °F (1966)
Min Temperature 26 °F 26 °F 8 °F (1964)
Degree Days  
Heating Degree Days 36    
Moisture  
Dew Point 26 °F    
Average Humidity 86    
Maximum Humidity 96    
Minimum Humidity 70    
Precipitation  
Precipitation 0.00 in - - ()
Sea Level Pressure  
Sea Level Pressure 29.76 in    
Wind  
Wind Speed 10 mph (ESE)    
Max Wind Speed 21 mph    
Max Gust Speed 31 mph    
Visibility 6 miles    
Events Rain , Snow    
Averages and records for this station are not official NWS values.
T = Trace of Precipitation, MM = Missing Value Source: NWS Daily Summary

Daily Weather History Graph

Daily Weather History Graph

Search for Another Location

Airport or City:

Trip Planner

Search our weather history database for the weather conditions in past years. The results will help you decide how hot, cold, wet, or windy it might be!

Date:

Astronomy

Mar. 18, 2013 Rise Set
Actual Time 7:48 AM EDT 7:52 PM EDT
Civil Twilight 7:20 AM EDT 8:20 PM EDT
Nautical Twilight 6:48 AM EDT 8:53 PM EDT
Astronomical Twilight 6:15 AM EDT 9:26 PM EDT
Moon 11:42 AM EDT (3/18) 1:56 AM EDT (3/18)
Length of Visible Light 12h 59m
Length of Day
12h 03m
Waxing Crescent, 40% of the Moon is Illuminated
Mar 18
Waxing Crescent
Mar 19
First Quarter
Mar 27
Full
Apr 3
Last Quarter
Apr 10
New

Hourly Weather History & Observations

Time (EDT) Temp. Windchill Dew Point Humidity Pressure Visibility Wind Dir Wind Speed Gust Speed Precip Events Conditions
12:14 AM 27.0 °F 16.1 °F 18.3 °F 70% 30.09 in 10.0 mi ESE 12.7 mph 18.4 mph N/A   Clear
12:35 AM 27.0 °F 16.7 °F 18.3 °F 70% 30.08 in 10.0 mi East 11.5 mph 17.3 mph N/A   Clear
12:54 AM 26.8 °F 17.1 °F 18.5 °F 71% 30.06 in 10.0 mi East 10.4 mph - N/A   Clear
1:14 AM 26.8 °F 19.3 °F 18.9 °F 72% 30.07 in 10.0 mi ESE 6.9 mph - N/A   Clear
1:35 AM 27.0 °F 17.3 °F 19.0 °F 72% 30.06 in 10.0 mi ESE 10.4 mph - N/A   Clear
1:54 AM 27.0 °F 18.0 °F 19.4 °F 73% 30.06 in 10.0 mi East 9.2 mph - N/A   Clear
2:15 AM 27.0 °F 16.1 °F 19.8 °F 74% 30.04 in 10.0 mi ESE 12.7 mph - N/A   Clear
2:35 AM 27.0 °F 18.0 °F 19.9 °F 75% 30.03 in 10.0 mi ESE 9.2 mph 16.1 mph N/A   Clear
2:54 AM 27.0 °F 16.7 °F 19.9 °F 75% 30.02 in 10.0 mi East 11.5 mph 17.3 mph N/A   Clear
3:15 AM 26.8 °F 16.5 °F 20.1 °F 76% 30.00 in 10.0 mi East 11.5 mph 19.6 mph N/A   Clear
3:35 AM 26.6 °F 16.2 °F 20.1 °F 77% 29.98 in 10.0 mi East 11.5 mph - N/A   Clear
3:54 AM 26.6 °F 17.5 °F 20.1 °F 77% 29.97 in 10.0 mi East 9.2 mph - N/A   Clear
4:15 AM 26.6 °F 15.7 °F 20.3 °F 77% 29.95 in 10.0 mi East 12.7 mph - N/A   Clear
4:34 AM 26.6 °F 16.2 °F 20.3 °F 77% 29.94 in 10.0 mi East 11.5 mph - N/A   Clear
4:54 AM 26.6 °F 16.8 °F 20.3 °F 77% 29.93 in 10.0 mi East 10.4 mph 16.1 mph N/A   Clear
5:15 AM 27.0 °F 15.6 °F 20.7 °F 77% 29.92 in 10.0 mi East 13.8 mph 17.3 mph N/A   Clear
5:34 AM 27.3 °F 17.1 °F 21.0 °F 77% 29.89 in 10.0 mi East 11.5 mph - N/A   Clear
5:54 AM 27.5 °F 15.9 °F 21.2 °F 77% 29.89 in 10.0 mi East 15.0 mph - N/A   Mostly Cloudy
6:15 AM 28.4 °F 19.1 °F 21.7 °F 76% 29.88 in 10.0 mi East 10.4 mph 18.4 mph N/A   Overcast
6:34 AM 28.9 °F 19.2 °F 21.9 °F 75% 29.88 in 10.0 mi East 11.5 mph - N/A   Overcast
6:55 AM 29.1 °F 21.3 °F 22.1 °F 75% 29.87 in 10.0 mi East 8.1 mph - N/A   Overcast
7:15 AM 29.1 °F 20.0 °F 22.5 °F 76% 29.86 in 4.0 mi East 10.4 mph 18.4 mph N/A Snow Light Snow
7:34 AM 28.9 °F 19.2 °F 23.4 °F 80% 29.85 in 3.0 mi East 11.5 mph 18.4 mph N/A Snow Light Snow
7:55 AM 28.4 °F 17.5 °F 23.9 °F 83% 29.83 in 2.0 mi East 13.8 mph 18.4 mph N/A Snow Light Snow
8:15 AM 28.0 °F 17.5 °F 24.4 °F 86% 29.82 in 1.0 mi East 12.7 mph - N/A Snow Light Snow
8:34 AM 28.4 °F 17.5 °F 25.2 °F 88% 29.81 in 5.0 mi East 13.8 mph - N/A Snow Light Snow
8:55 AM 28.4 °F 18.0 °F 25.2 °F 88% 29.79 in 5.0 mi East 12.7 mph 19.6 mph N/A   Overcast
9:15 AM 28.8 °F 18.4 °F 25.3 °F 87% 29.78 in 10.0 mi East 12.7 mph 18.4 mph N/A   Overcast
9:34 AM 28.9 °F 21.1 °F 25.3 °F 86% 29.77 in 10.0 mi East 8.1 mph 11.5 mph N/A   Overcast
9:55 AM 29.1 °F 20.0 °F 25.5 °F 86% 29.75 in 7.0 mi East 10.4 mph 21.9 mph N/A   Overcast
10:14 AM 29.3 °F 20.2 °F 25.7 °F 86% 29.75 in 5.0 mi East 10.4 mph 16.1 mph N/A   Overcast
10:34 AM 29.7 °F 20.7 °F 26.1 °F 86% 29.74 in 10.0 mi East 10.4 mph 17.3 mph N/A   Overcast
10:55 AM 30.2 °F 21.3 °F 26.4 °F 86% 29.72 in 10.0 mi East 10.4 mph 19.6 mph N/A   Overcast
11:14 AM 30.2 °F 21.3 °F 26.6 °F 86% 29.71 in 7.0 mi East 10.4 mph - N/A   Overcast
11:34 AM 30.6 °F 21.2 °F 27.1 °F 87% 29.71 in 7.0 mi East 11.5 mph - N/A   Overcast
11:55 AM 30.7 °F 21.4 °F 27.5 °F 88% 29.70 in 7.0 mi East 11.5 mph - N/A   Overcast
12:14 PM 30.9 °F 21.7 °F 27.9 °F 88% 29.70 in 3.0 mi East 11.5 mph 17.3 mph N/A   Overcast
12:35 PM 31.1 °F 22.4 °F 28.4 °F 90% 29.68 in 1.8 mi East 10.4 mph - N/A   Overcast
12:54 PM 31.5 °F 24.9 °F 29.1 °F 91% 29.67 in 3.0 mi ESE 6.9 mph - N/A   Overcast
1:15 PM 31.6 °F 23.7 °F 29.5 °F 92% 29.65 in 4.0 mi East 9.2 mph - N/A   Overcast
1:35 PM 32.0 °F 24.2 °F 30.0 °F 92% 29.65 in 3.0 mi East 9.2 mph - N/A   Overcast
1:54 PM 32.0 °F 24.8 °F 30.2 °F 93% 29.63 in 1.8 mi ESE 8.1 mph - N/A Snow Light Snow
2:15 PM 32.2 °F 25.0 °F 30.7 °F 94% 29.62 in 1.2 mi ESE 8.1 mph - N/A   Overcast
2:35 PM 32.2 °F 25.8 °F 31.1 °F 96% 29.61 in 1.5 mi ESE 6.9 mph - N/A   Overcast
2:54 PM 32.5 °F 25.5 °F 31.1 °F 94% 29.59 in 1.2 mi ESE 8.1 mph - N/A   Overcast
3:15 PM 32.9 °F 26.7 °F 31.6 °F 95% 29.60 in 1.0 mi SE 6.9 mph - N/A Snow Light Snow
3:35 PM 33.1 °F 28.7 °F 32.0 °F 96% 29.60 in 1.2 mi SSE 4.6 mph - N/A Snow Light Snow
3:54 PM 33.1 °F 30.0 °F 32.0 °F 96% 29.59 in 1.5 mi SE 3.5 mph - N/A   Overcast
4:15 PM 33.3 °F - 32.0 °F 95% 29.58 in 1.2 mi Calm Calm - N/A   Light Drizzle
4:34 PM 33.3 °F 30.2 °F 32.0 °F 95% 29.59 in 1.0 mi SSW 3.5 mph - N/A Rain Rain
5:15 PM 33.6 °F 30.6 °F 32.0 °F 94% 29.57 in 2.5 mi SSW 3.5 mph - N/A   Light Drizzle
5:34 PM 33.8 °F 29.6 °F 32.2 °F 94% 29.57 in 2.0 mi SSW 4.6 mph - N/A Rain Rain
5:55 PM 33.8 °F 29.6 °F 32.2 °F 94% 29.58 in 1.2 mi SW 4.6 mph - N/A Rain Light Rain
6:14 PM 33.8 °F 28.6 °F 32.4 °F 94% 29.58 in 1.5 mi SW 5.8 mph - N/A   Light Drizzle
6:34 PM 33.8 °F 28.6 °F 32.4 °F 94% 29.58 in 1.5 mi SW 5.8 mph - N/A   Overcast
6:55 PM 33.8 °F 27.0 °F 32.4 °F 94% 29.59 in 3.0 mi WSW 8.1 mph - N/A   Light Drizzle
7:14 PM 33.8 °F 27.0 °F 32.2 °F 94% 29.59 in 4.0 mi WSW 8.1 mph - N/A   Overcast
7:35 PM 33.8 °F 27.0 °F 32.0 °F 93% 29.61 in 3.0 mi WSW 8.1 mph 17.3 mph N/A Snow Light Snow
7:55 PM 33.1 °F 24.4 °F 32.0 °F 96% 29.62 in 4.0 mi WSW 11.5 mph 17.3 mph N/A Snow Light Snow
8:14 PM 33.1 °F 25.5 °F 31.6 °F 94% 29.63 in 4.0 mi WSW 9.2 mph - N/A   Overcast
8:35 PM 32.9 °F 24.7 °F 31.5 °F 94% 29.64 in 3.0 mi West 10.4 mph 17.3 mph N/A Snow Light Snow
8:55 PM 32.9 °F 24.1 °F 31.1 °F 93% 29.65 in 5.0 mi West 11.5 mph - N/A Snow Light Snow
9:14 PM 32.9 °F 24.1 °F 31.1 °F 93% 29.65 in 7.0 mi West 11.5 mph 16.1 mph N/A   Overcast
9:35 PM 33.1 °F 24.9 °F 31.1 °F 92% 29.65 in 7.0 mi WSW 10.4 mph 16.1 mph N/A   Overcast
9:55 PM 33.3 °F 25.1 °F 31.1 °F 92% 29.66 in 7.0 mi WSW 10.4 mph 16.1 mph N/A   Overcast
10:14 PM 33.4 °F 25.9 °F 31.1 °F 91% 29.66 in 4.0 mi WSW 9.2 mph - N/A   Overcast
10:35 PM 33.3 °F 25.7 °F 31.3 °F 92% 29.66 in 5.0 mi WSW 9.2 mph - N/A   Overcast
10:54 PM 33.3 °F 22.1 °F 30.9 °F 91% 29.66 in 7.0 mi West 18.4 mph 24.2 mph N/A   Overcast
11:14 PM 32.0 °F 20.1 °F 28.9 °F 88% 29.67 in 7.0 mi West 19.6 mph 31.1 mph N/A   Overcast
11:54 PM 30.2 °F 17.4 °F 24.1 °F 78% 29.69 in 10.0 mi West 20.7 mph 28.8 mph N/A   Overcast